createdAt,value
2019-05-12T00:01:48.112Z,10.98
2019-05-12T00:04:19.025Z,10.96
2019-05-12T00:06:49.855Z,10.96
2019-05-12T00:09:20.823Z,10.97
2019-05-12T00:11:51.609Z,10.94
2019-05-12T00:14:22.263Z,10.89
2019-05-12T00:16:52.876Z,10.84
2019-05-12T00:19:23.548Z,10.76
2019-05-12T00:21:54.364Z,10.71
2019-05-12T00:24:25.137Z,10.66
2019-05-12T00:26:58.034Z,10.62
2019-05-12T00:29:30.001Z,10.59
2019-05-12T00:32:00.812Z,10.55
2019-05-12T00:34:31.450Z,10.53
2019-05-12T00:37:02.247Z,10.48
2019-05-12T00:39:33.387Z,10.45
2019-05-12T00:42:04.040Z,10.39
2019-05-12T00:44:34.724Z,10.36
2019-05-12T00:47:05.618Z,10.33
2019-05-12T00:49:37.918Z,10.26
2019-05-12T00:52:08.763Z,10.23
2019-05-12T00:54:39.410Z,10.21
2019-05-12T00:57:10.003Z,10.16
2019-05-12T00:59:40.570Z,10.10
2019-05-12T01:02:11.789Z,10.08
2019-05-12T01:04:42.545Z,9.99
2019-05-12T01:07:13.157Z,9.90
2019-05-12T01:09:43.836Z,9.75
2019-05-12T01:12:14.934Z,9.62
2019-05-12T01:14:47.835Z,9.51
2019-05-12T01:17:18.604Z,9.40
2019-05-12T01:19:49.464Z,9.35
2019-05-12T01:22:22.254Z,9.27
2019-05-12T01:24:54.100Z,9.19
2019-05-12T01:27:28.617Z,9.11
2019-05-12T01:30:01.871Z,8.96
2019-05-12T01:32:38.175Z,8.81
2019-05-12T01:35:10.542Z,8.66
2019-05-12T01:37:42.471Z,8.43
2019-05-12T01:40:13.343Z,8.25
2019-05-12T01:42:44.463Z,8.11
2019-05-12T01:45:18.062Z,7.97
2019-05-12T01:47:49.097Z,7.90
2019-05-12T01:50:20.023Z,7.81
2019-05-12T01:52:50.733Z,7.75
2019-05-12T01:55:21.700Z,7.68
2019-05-12T01:57:52.958Z,7.62
2019-05-12T02:00:27.887Z,7.59
2019-05-12T02:02:58.456Z,7.51
2019-05-12T02:05:29.352Z,7.49
2019-05-12T02:08:00.709Z,7.44
2019-05-12T02:10:31.406Z,7.42
2019-05-12T02:13:03.399Z,7.38
2019-05-12T02:15:34.209Z,7.33
2019-05-12T02:18:05.028Z,7.29
2019-05-12T02:20:37.849Z,7.25
2019-05-12T02:23:09.064Z,7.21
2019-05-12T02:25:40.227Z,7.14
2019-05-12T02:28:10.889Z,7.08
2019-05-12T02:30:42.084Z,7.01
2019-05-12T02:33:16.056Z,6.95
2019-05-12T02:35:45.578Z,6.89
2019-05-12T02:38:16.181Z,6.86
2019-05-12T02:40:47.599Z,6.83
2019-05-12T02:43:18.419Z,6.80
2019-05-12T02:45:49.316Z,6.75
2019-05-12T02:48:20.027Z,6.75
2019-05-12T02:50:50.560Z,6.75
2019-05-12T02:53:24.627Z,6.74
2019-05-12T02:55:55.688Z,6.76
2019-05-12T02:58:29.110Z,6.76
2019-05-12T03:01:05.476Z,6.74
2019-05-12T03:03:37.095Z,6.76
2019-05-12T03:06:07.838Z,6.75
2019-05-12T03:08:38.795Z,6.78
2019-05-12T03:11:09.417Z,6.79
2019-05-12T03:13:39.952Z,6.76
2019-05-12T03:16:10.666Z,6.78
2019-05-12T03:18:44.694Z,6.76
2019-05-12T03:21:15.240Z,6.75
2019-05-12T03:23:46.375Z,6.75
2019-05-12T03:26:17.149Z,6.73
2019-05-12T03:28:49.391Z,6.71
2019-05-12T03:31:25.471Z,6.72
2019-05-12T03:33:59.567Z,6.72
2019-05-12T03:36:32.077Z,6.71
2019-05-12T03:38:57.192Z,6.71
2019-05-12T03:41:28.730Z,6.72
2019-05-12T03:43:59.497Z,6.71
2019-05-12T03:46:30.225Z,6.72
2019-05-12T03:49:00.863Z,6.72
2019-05-12T03:51:34.740Z,6.73
2019-05-12T03:54:04.998Z,6.71
2019-05-12T03:56:36.141Z,6.70
2019-05-12T03:59:07.160Z,6.72
2019-05-12T04:01:38.800Z,6.68
2019-05-12T04:04:09.582Z,6.71
2019-05-12T04:06:40.296Z,6.71
2019-05-12T04:09:11.045Z,6.69
2019-05-12T04:11:44.432Z,6.70
2019-05-12T04:14:15.034Z,6.73
